sensor_id;sensor_type;location;lat;lon;timestamp;P1;durP1;ratioP1;P2;durP2;ratioP2
16426;SDS011;8322;-33.900;151.170;2023-03-01T00:01:57;9.70;;;4.10;;
16426;SDS011;8322;-33.900;151.170;2023-03-01T00:04:27;8.60;;;4.07;;
16426;SDS011;8322;-33.900;151.170;2023-03-01T00:06:56;7.80;;;3.45;;
16426;SDS011;8322;-33.900;151.170;2023-03-01T00:09:27;8.50;;;3.38;;
16426;SDS011;8322;-33.900;151.170;2023-03-01T00:11:57;8.00;;;3.60;;
16426;SDS011;8322;-33.900;151.170;2023-03-01T00:14:26;5.63;;;3.38;;
16426;SDS011;8322;-33.900;151.170;2023-03-01T00:16:56;6.78;;;3.75;;
16426;SDS011;8322;-33.900;151.170;2023-03-01T00:19:25;10.02;;;3.25;;
16426;SDS011;8322;-33.900;151.170;2023-03-01T00:21:54;6.93;;;3.38;;
16426;SDS011;8322;-33.900;151.170;2023-03-01T00:24:24;5.13;;;3.00;;
16426;SDS011;8322;-33.900;151.170;2023-03-01T00:26:55;7.32;;;3.03;;
16426;SDS011;8322;-33.900;151.170;2023-03-01T00:29:25;7.63;;;3.00;;
16426;SDS011;8322;-33.900;151.170;2023-03-01T00:31:54;7.90;;;2.55;;
16426;SDS011;8322;-33.900;151.170;2023-03-01T00:34:23;7.10;;;2.20;;
16426;SDS011;8322;-33.900;151.170;2023-03-01T00:36:53;8.75;;;2.20;;
16426;SDS011;8322;-33.900;151.170;2023-03-01T00:39:31;8.13;;;2.00;;
16426;SDS011;8322;-33.900;151.170;2023-03-01T00:42:02;5.82;;;2.00;;
16426;SDS011;8322;-33.900;151.170;2023-03-01T00:44:32;6.10;;;1.83;;
16426;SDS011;8322;-33.900;151.170;2023-03-01T00:47:01;5.00;;;2.00;;
16426;SDS011;8322;-33.900;151.170;2023-03-01T00:49:31;7.93;;;2.35;;
16426;SDS011;8322;-33.900;151.170;2023-03-01T00:52:00;8.32;;;2.40;;
16426;SDS011;8322;-33.900;151.170;2023-03-01T00:54:29;6.80;;;2.50;;
16426;SDS011;8322;-33.900;151.170;2023-03-01T00:56:59;8.10;;;2.10;;
16426;SDS011;8322;-33.900;151.170;2023-03-01T00:59:30;9.05;;;2.20;;
16426;SDS011;8322;-33.900;151.170;2023-03-01T01:02:00;7.65;;;2.00;;
16426;SDS011;8322;-33.900;151.170;2023-03-01T01:04:30;6.78;;;1.75;;
16426;SDS011;8322;-33.900;151.170;2023-03-01T01:06:59;8.45;;;2.00;;
16426;SDS011;8322;-33.900;151.170;2023-03-01T01:09:29;8.93;;;1.83;;
16426;SDS011;8322;-33.900;151.170;2023-03-01T01:11:58;4.68;;;1.75;;
16426;SDS011;8322;-33.900;151.170;2023-03-01T01:14:28;7.75;;;2.17;;
16426;SDS011;8322;-33.900;151.170;2023-03-01T01:16:59;9.43;;;2.00;;
16426;SDS011;8322;-33.900;151.170;2023-03-01T01:19:28;6.30;;;2.03;;
16426;SDS011;8322;-33.900;151.170;2023-03-01T01:21:58;10.98;;;2.08;;
16426;SDS011;8322;-33.900;151.170;2023-03-01T01:24:28;7.38;;;1.90;;
16426;SDS011;8322;-33.900;151.170;2023-03-01T01:26:57;10.13;;;2.08;;
16426;SDS011;8322;-33.900;151.170;2023-03-01T01:29:26;6.05;;;1.75;;
16426;SDS011;8322;-33.900;151.170;2023-03-01T01:31:56;7.03;;;1.45;;
16426;SDS011;8322;-33.900;151.170;2023-03-01T01:34:27;6.32;;;1.35;;
16426;SDS011;8322;-33.900;151.170;2023-03-01T01:36:56;4.47;;;1.38;;
16426;SDS011;8322;-33.900;151.170;2023-03-01T01:39:28;4.97;;;1.35;;
16426;SDS011;8322;-33.900;151.170;2023-03-01T01:41:58;3.33;;;1.30;;
16426;SDS011;8322;-33.900;151.170;2023-03-01T01:44:28;7.28;;;1.85;;
16426;SDS011;8322;-33.900;151.170;2023-03-01T01:46:58;4.88;;;1.40;;
16426;SDS011;8322;-33.900;151.170;2023-03-01T01:49:31;5.18;;;1.20;;
16426;SDS011;8322;-33.900;151.170;2023-03-01T01:52:03;3.13;;;1.20;;
16426;SDS011;8322;-33.900;151.170;2023-03-01T01:54:36;6.28;;;1.15;;
16426;SDS011;8322;-33.900;151.170;2023-03-01T01:57:09;4.82;;;1.10;;
16426;SDS011;8322;-33.900;151.170;2023-03-01T01:59:40;2.85;;;1.08;;
16426;SDS011;8322;-33.900;151.170;2023-03-01T02:02:10;9.50;;;1.30;;
16426;SDS011;8322;-33.900;151.170;2023-03-01T02:04:42;4.03;;;1.10;;
16426;SDS011;8322;-33.900;151.170;2023-03-01T02:07:14;4.15;;;1.13;;
16426;SDS011;8322;-33.900;151.170;2023-03-01T02:09:45;3.78;;;1.25;;
16426;SDS011;8322;-33.900;151.170;2023-03-01T02:12:15;3.45;;;1.05;;
16426;SDS011;8322;-33.900;151.170;2023-03-01T02:14:45;5.22;;;1.10;;
16426;SDS011;8322;-33.900;151.170;2023-03-01T02:17:15;5.78;;;1.00;;
16426;SDS011;8322;-33.900;151.170;2023-03-01T02:19:50;2.67;;;1.05;;
16426;SDS011;8322;-33.900;151.170;2023-03-01T02:22:23;4.88;;;1.52;;
16426;SDS011;8322;-33.900;151.170;2023-03-01T02:24:57;3.88;;;1.00;;
16426;SDS011;8322;-33.900;151.170;2023-03-01T02:27:33;4.88;;;1.42;;
16426;SDS011;8322;-33.900;151.170;2023-03-01T02:30:06;6.50;;;1.13;;
16426;SDS011;8322;-33.900;151.170;2023-03-01T02:32:38;1.58;;;0.90;;
16426;SDS011;8322;-33.900;151.170;2023-03-01T02:35:08;4.68;;;1.13;;
16426;SDS011;8322;-33.900;151.170;2023-03-01T02:37:38;4.55;;;1.63;;
16426;SDS011;8322;-33.900;151.170;2023-03-01T02:40:08;3.45;;;1.40;;
16426;SDS011;8322;-33.900;151.170;2023-03-01T02:42:40;3.65;;;1.23;;
16426;SDS011;8322;-33.900;151.170;2023-03-01T02:45:14;2.33;;;1.25;;
16426;SDS011;8322;-33.900;151.170;2023-03-01T02:47:44;2.35;;;0.90;;
16426;SDS011;8322;-33.900;151.170;2023-03-01T02:50:15;2.90;;;1.08;;
16426;SDS011;8322;-33.900;151.170;2023-03-01T02:52:48;2.90;;;1.10;;
16426;SDS011;8322;-33.900;151.170;2023-03-01T02:55:22;1.98;;;1.05;;
16426;SDS011;8322;-33.900;151.170;2023-03-01T02:57:51;2.53;;;0.90;;
16426;SDS011;8322;-33.900;151.170;2023-03-01T03:00:23;2.45;;;1.00;;
16426;SDS011;8322;-33.900;151.170;2023-03-01T03:02:54;3.72;;;1.17;;
16426;SDS011;8322;-33.900;151.170;2023-03-01T03:05:25;3.78;;;1.30;;
16426;SDS011;8322;-33.900;151.170;2023-03-01T03:07:54;2.63;;;1.00;;
16426;SDS011;8322;-33.900;151.170;2023-03-01T03:10:24;5.25;;;1.38;;
16426;SDS011;8322;-33.900;151.170;2023-03-01T03:12:54;4.47;;;1.50;;
16426;SDS011;8322;-33.900;151.170;2023-03-01T03:15:26;4.80;;;1.13;;
16426;SDS011;8322;-33.900;151.170;2023-03-01T03:17:56;4.10;;;1.27;;
16426;SDS011;8322;-33.900;151.170;2023-03-01T03:20:27;4.50;;;0.98;;
16426;SDS011;8322;-33.900;151.170;2023-03-01T03:22:57;6.63;;;1.08;;
16426;SDS011;8322;-33.900;151.170;2023-03-01T03:25:27;6.55;;;1.23;;
16426;SDS011;8322;-33.900;151.170;2023-03-01T03:27:56;6.88;;;1.15;;
16426;SDS011;8322;-33.900;151.170;2023-03-01T03:30:28;5.55;;;1.10;;
16426;SDS011;8322;-33.900;151.170;2023-03-01T03:32:58;12.20;;;1.73;;
16426;SDS011;8322;-33.900;151.170;2023-03-01T03:35:28;16.98;;;1.85;;
16426;SDS011;8322;-33.900;151.170;2023-03-01T03:37:58;10.38;;;1.63;;
16426;SDS011;8322;-33.900;151.170;2023-03-01T03:40:33;13.35;;;1.70;;
16426;SDS011;8322;-33.900;151.170;2023-03-01T03:43:03;8.00;;;1.38;;
16426;SDS011;8322;-33.900;151.170;2023-03-01T03:45:34;7.43;;;1.13;;
16426;SDS011;8322;-33.900;151.170;2023-03-01T03:48:04;5.47;;;0.90;;
16426;SDS011;8322;-33.900;151.170;2023-03-01T03:50:35;6.20;;;0.90;;
16426;SDS011;8322;-33.900;151.170;2023-03-01T03:53:05;7.32;;;1.10;;
16426;SDS011;8322;-33.900;151.170;2023-03-01T03:55:34;9.27;;;1.30;;
16426;SDS011;8322;-33.900;151.170;2023-03-01T03:58:05;7.50;;;1.10;;
16426;SDS011;8322;-33.900;151.170;2023-03-01T04:00:38;4.35;;;0.73;;
16426;SDS011;8322;-33.900;151.170;2023-03-01T04:03:07;4.78;;;0.70;;
16426;SDS011;8322;-33.900;151.170;2023-03-01T04:05:37;7.38;;;1.10;;
16426;SDS011;8322;-33.900;151.170;2023-03-01T04:08:06;4.82;;;0.80;;
16426;SDS011;8322;-33.900;151.170;2023-03-01T04:10:37;3.20;;;0.70;;
16426;SDS011;8322;-33.900;151.170;2023-03-01T04:13:06;4.82;;;0.70;;
16426;SDS011;8322;-33.900;151.170;2023-03-01T04:15:38;6.38;;;1.00;;
16426;SDS011;8322;-33.900;151.170;2023-03-01T04:18:08;6.93;;;1.00;;
16426;SDS011;8322;-33.900;151.170;2023-03-01T04:20:40;4.63;;;0.70;;
16426;SDS011;8322;-33.900;151.170;2023-03-01T04:23:11;7.13;;;0.80;;
16426;SDS011;8322;-33.900;151.170;2023-03-01T04:25:42;8.70;;;1.05;;
16426;SDS011;8322;-33.900;151.170;2023-03-01T04:28:15;6.90;;;1.25;;
16426;SDS011;8322;-33.900;151.170;2023-03-01T04:30:46;6.30;;;1.00;;
16426;SDS011;8322;-33.900;151.170;2023-03-01T04:33:16;5.25;;;1.23;;
16426;SDS011;8322;-33.900;151.170;2023-03-01T04:35:45;6.10;;;1.08;;
16426;SDS011;8322;-33.900;151.170;2023-03-01T04:38:15;6.00;;;1.20;;
16426;SDS011;8322;-33.900;151.170;2023-03-01T04:40:45;6.13;;;1.00;;
16426;SDS011;8322;-33.900;151.170;2023-03-01T04:43:14;10.07;;;1.33;;
16426;SDS011;8322;-33.900;151.170;2023-03-01T04:45:44;6.95;;;1.00;;
16426;SDS011;8322;-33.900;151.170;2023-03-01T04:48:15;4.13;;;0.90;;
16426;SDS011;8322;-33.900;151.170;2023-03-01T04:50:44;7.30;;;1.00;;
16426;SDS011;8322;-33.900;151.170;2023-03-01T04:53:14;6.65;;;1.30;;
16426;SDS011;8322;-33.900;151.170;2023-03-01T04:55:44;4.25;;;0.80;;
16426;SDS011;8322;-33.900;151.170;2023-03-01T04:58:14;5.72;;;1.38;;
16426;SDS011;8322;-33.900;151.170;2023-03-01T05:00:43;6.22;;;1.10;;
16426;SDS011;8322;-33.900;151.170;2023-03-01T05:03:12;4.97;;;1.00;;
16426;SDS011;8322;-33.900;151.170;2023-03-01T05:05:46;5.82;;;1.30;;
16426;SDS011;8322;-33.900;151.170;2023-03-01T05:08:15;6.82;;;1.20;;
16426;SDS011;8322;-33.900;151.170;2023-03-01T05:10:47;4.40;;;1.10;;
16426;SDS011;8322;-33.900;151.170;2023-03-01T05:13:17;7.03;;;1.25;;
16426;SDS011;8322;-33.900;151.170;2023-03-01T05:15:48;5.78;;;1.27;;
16426;SDS011;8322;-33.900;151.170;2023-03-01T05:18:18;5.78;;;1.65;;
16426;SDS011;8322;-33.900;151.170;2023-03-01T05:20:53;9.13;;;1.80;;
16426;SDS011;8322;-33.900;151.170;2023-03-01T05:23:24;7.93;;;1.92;;
16426;SDS011;8322;-33.900;151.170;2023-03-01T05:25:53;6.63;;;1.60;;
16426;SDS011;8322;-33.900;151.170;2023-03-01T05:28:23;8.75;;;1.50;;
16426;SDS011;8322;-33.900;151.170;2023-03-01T05:30:52;5.75;;;1.70;;
16426;SDS011;8322;-33.900;151.170;2023-03-01T05:33:22;6.85;;;1.70;;
16426;SDS011;8322;-33.900;151.170;2023-03-01T05:35:53;5.97;;;1.60;;
16426;SDS011;8322;-33.900;151.170;2023-03-01T05:38:22;6.97;;;1.67;;
16426;SDS011;8322;-33.900;151.170;2023-03-01T05:40:52;8.95;;;2.03;;
16426;SDS011;8322;-33.900;151.170;2023-03-01T05:43:21;5.80;;;1.50;;
16426;SDS011;8322;-33.900;151.170;2023-03-01T05:45:51;9.95;;;1.90;;
16426;SDS011;8322;-33.900;151.170;2023-03-01T05:48:20;9.77;;;1.98;;
16426;SDS011;8322;-33.900;151.170;2023-03-01T05:50:49;13.25;;;2.67;;
16426;SDS011;8322;-33.900;151.170;2023-03-01T05:53:21;12.93;;;1.92;;
16426;SDS011;8322;-33.900;151.170;2023-03-01T05:55:50;6.90;;;2.00;;
16426;SDS011;8322;-33.900;151.170;2023-03-01T05:58:19;10.57;;;2.00;;
16426;SDS011;8322;-33.900;151.170;2023-03-01T06:00:50;10.57;;;1.88;;
16426;SDS011;8322;-33.900;151.170;2023-03-01T06:03:20;9.80;;;2.50;;
16426;SDS011;8322;-33.900;151.170;2023-03-01T06:05:50;14.18;;;2.47;;
16426;SDS011;8322;-33.900;151.170;2023-03-01T06:08:26;11.73;;;3.10;;
16426;SDS011;8322;-33.900;151.170;2023-03-01T06:10:55;11.65;;;2.60;;
16426;SDS011;8322;-33.900;151.170;2023-03-01T06:13:25;14.15;;;3.22;;
16426;SDS011;8322;-33.900;151.170;2023-03-01T06:15:54;12.15;;;2.15;;
16426;SDS011;8322;-33.900;151.170;2023-03-01T06:18:24;13.55;;;2.65;;
16426;SDS011;8322;-33.900;151.170;2023-03-01T06:20:53;10.95;;;2.20;;
16426;SDS011;8322;-33.900;151.170;2023-03-01T06:23:23;12.95;;;2.15;;
16426;SDS011;8322;-33.900;151.170;2023-03-01T06:25:54;15.20;;;2.10;;
16426;SDS011;8322;-33.900;151.170;2023-03-01T06:28:24;9.85;;;2.25;;
16426;SDS011;8322;-33.900;151.170;2023-03-01T06:30:53;11.13;;;2.10;;
16426;SDS011;8322;-33.900;151.170;2023-03-01T06:33:23;10.50;;;2.20;;
16426;SDS011;8322;-33.900;151.170;2023-03-01T06:35:54;14.30;;;2.45;;
16426;SDS011;8322;-33.900;151.170;2023-03-01T06:38:23;11.77;;;1.98;;
16426;SDS011;8322;-33.900;151.170;2023-03-01T06:40:55;9.50;;;2.17;;
16426;SDS011;8322;-33.900;151.170;2023-03-01T06:43:24;12.10;;;2.50;;
16426;SDS011;8322;-33.900;151.170;2023-03-01T06:45:54;13.60;;;2.47;;
16426;SDS011;8322;-33.900;151.170;2023-03-01T06:48:23;14.32;;;2.88;;
16426;SDS011;8322;-33.900;151.170;2023-03-01T06:50:53;12.98;;;2.60;;
16426;SDS011;8322;-33.900;151.170;2023-03-01T06:53:22;16.40;;;2.45;;
16426;SDS011;8322;-33.900;151.170;2023-03-01T06:55:55;16.60;;;2.88;;
16426;SDS011;8322;-33.900;151.170;2023-03-01T06:58:26;12.43;;;2.28;;
16426;SDS011;8322;-33.900;151.170;2023-03-01T07:00:55;15.63;;;2.85;;
16426;SDS011;8322;-33.900;151.170;2023-03-01T07:03:24;12.63;;;2.70;;
16426;SDS011;8322;-33.900;151.170;2023-03-01T07:05:54;15.88;;;2.70;;
16426;SDS011;8322;-33.900;151.170;2023-03-01T07:08:24;13.43;;;2.60;;
16426;SDS011;8322;-33.900;151.170;2023-03-01T07:10:58;13.07;;;3.20;;
16426;SDS011;8322;-33.900;151.170;2023-03-01T07:13:28;14.00;;;3.08;;
16426;SDS011;8322;-33.900;151.170;2023-03-01T07:15:57;14.05;;;2.63;;
16426;SDS011;8322;-33.900;151.170;2023-03-01T07:18:27;13.93;;;2.67;;
16426;SDS011;8322;-33.900;151.170;2023-03-01T07:20:56;11.55;;;2.63;;
16426;SDS011;8322;-33.900;151.170;2023-03-01T07:23:26;12.85;;;2.63;;
16426;SDS011;8322;-33.900;151.170;2023-03-01T07:25:55;17.60;;;2.60;;
16426;SDS011;8322;-33.900;151.170;2023-03-01T07:28:27;11.05;;;2.58;;
16426;SDS011;8322;-33.900;151.170;2023-03-01T07:31:00;11.05;;;2.17;;
16426;SDS011;8322;-33.900;151.170;2023-03-01T07:33:30;11.48;;;2.40;;
16426;SDS011;8322;-33.900;151.170;2023-03-01T07:36:00;13.98;;;2.13;;
16426;SDS011;8322;-33.900;151.170;2023-03-01T07:38:29;13.35;;;2.45;;
16426;SDS011;8322;-33.900;151.170;2023-03-01T07:40:59;11.98;;;2.75;;
16426;SDS011;8322;-33.900;151.170;2023-03-01T07:43:31;10.07;;;2.63;;
16426;SDS011;8322;-33.900;151.170;2023-03-01T07:46:00;13.27;;;3.08;;
16426;SDS011;8322;-33.900;151.170;2023-03-01T07:48:30;14.13;;;2.65;;
16426;SDS011;8322;-33.900;151.170;2023-03-01T07:51:00;16.67;;;3.20;;
16426;SDS011;8322;-33.900;151.170;2023-03-01T07:53:29;9.82;;;2.63;;
16426;SDS011;8322;-33.900;151.170;2023-03-01T07:56:03;18.98;;;2.90;;
16426;SDS011;8322;-33.900;151.170;2023-03-01T07:58:35;12.52;;;2.30;;
16426;SDS011;8322;-33.900;151.170;2023-03-01T08:01:06;12.55;;;2.20;;
16426;SDS011;8322;-33.900;151.170;2023-03-01T08:03:36;15.88;;;2.78;;
16426;SDS011;8322;-33.900;151.170;2023-03-01T08:06:06;17.88;;;2.75;;
16426;SDS011;8322;-33.900;151.170;2023-03-01T08:08:36;12.90;;;2.97;;
16426;SDS011;8322;-33.900;151.170;2023-03-01T08:11:06;14.88;;;2.80;;
16426;SDS011;8322;-33.900;151.170;2023-03-01T08:13:38;16.15;;;2.53;;
16426;SDS011;8322;-33.900;151.170;2023-03-01T08:16:08;16.48;;;2.70;;
16426;SDS011;8322;-33.900;151.170;2023-03-01T08:18:38;15.75;;;2.90;;
16426;SDS011;8322;-33.900;151.170;2023-03-01T08:21:08;11.93;;;2.58;;
16426;SDS011;8322;-33.900;151.170;2023-03-01T08:23:38;13.52;;;2.80;;
16426;SDS011;8322;-33.900;151.170;2023-03-01T08:26:08;14.07;;;2.55;;
16426;SDS011;8322;-33.900;151.170;2023-03-01T08:28:40;13.65;;;3.03;;
16426;SDS011;8322;-33.900;151.170;2023-03-01T08:31:16;13.90;;;2.67;;
16426;SDS011;8322;-33.900;151.170;2023-03-01T08:33:46;12.80;;;2.50;;
16426;SDS011;8322;-33.900;151.170;2023-03-01T08:36:21;12.10;;;2.30;;
16426;SDS011;8322;-33.900;151.170;2023-03-01T08:38:53;12.15;;;2.67;;
16426;SDS011;8322;-33.900;151.170;2023-03-01T08:41:22;13.90;;;2.97;;
16426;SDS011;8322;-33.900;151.170;2023-03-01T08:43:54;14.32;;;3.10;;
16426;SDS011;8322;-33.900;151.170;2023-03-01T08:46:24;13.18;;;2.88;;
16426;SDS011;8322;-33.900;151.170;2023-03-01T08:48:54;10.50;;;2.50;;
16426;SDS011;8322;-33.900;151.170;2023-03-01T08:51:23;18.23;;;2.78;;
16426;SDS011;8322;-33.900;151.170;2023-03-01T08:53:53;13.65;;;3.05;;
16426;SDS011;8322;-33.900;151.170;2023-03-01T08:56:23;12.45;;;3.22;;
16426;SDS011;8322;-33.900;151.170;2023-03-01T08:58:54;12.70;;;2.58;;
16426;SDS011;8322;-33.900;151.170;2023-03-01T09:01:23;12.30;;;2.50;;
16426;SDS011;8322;-33.900;151.170;2023-03-01T09:03:53;8.85;;;2.30;;
16426;SDS011;8322;-33.900;151.170;2023-03-01T09:06:22;14.07;;;3.00;;
16426;SDS011;8322;-33.900;151.170;2023-03-01T09:08:52;13.27;;;2.58;;
16426;SDS011;8322;-33.900;151.170;2023-03-01T09:11:21;13.88;;;2.50;;
16426;SDS011;8322;-33.900;151.170;2023-03-01T09:13:51;13.27;;;2.65;;
16426;SDS011;8322;-33.900;151.170;2023-03-01T09:16:22;11.13;;;2.22;;
16426;SDS011;8322;-33.900;151.170;2023-03-01T09:18:52;11.55;;;2.30;;
16426;SDS011;8322;-33.900;151.170;2023-03-01T09:21:22;10.52;;;2.38;;
16426;SDS011;8322;-33.900;151.170;2023-03-01T09:23:51;15.52;;;2.70;;
16426;SDS011;8322;-33.900;151.170;2023-03-01T09:26:21;11.43;;;2.50;;
16426;SDS011;8322;-33.900;151.170;2023-03-01T09:28:51;9.23;;;2.40;;
16426;SDS011;8322;-33.900;151.170;2023-03-01T09:31:23;11.20;;;2.70;;
16426;SDS011;8322;-33.900;151.170;2023-03-01T09:33:53;12.70;;;2.97;;
16426;SDS011;8322;-33.900;151.170;2023-03-01T09:36:23;11.73;;;2.67;;
16426;SDS011;8322;-33.900;151.170;2023-03-01T09:38:53;12.35;;;2.70;;
16426;SDS011;8322;-33.900;151.170;2023-03-01T09:41:26;10.57;;;2.50;;
16426;SDS011;8322;-33.900;151.170;2023-03-01T09:43:59;9.80;;;2.47;;
16426;SDS011;8322;-33.900;151.170;2023-03-01T09:46:33;12.35;;;2.90;;
16426;SDS011;8322;-33.900;151.170;2023-03-01T09:49:04;12.80;;;3.05;;
16426;SDS011;8322;-33.900;151.170;2023-03-01T09:51:35;9.27;;;2.35;;
16426;SDS011;8322;-33.900;151.170;2023-03-01T09:54:05;9.50;;;2.33;;
16426;SDS011;8322;-33.900;151.170;2023-03-01T09:56:37;12.27;;;2.70;;
16426;SDS011;8322;-33.900;151.170;2023-03-01T09:59:14;12.07;;;2.53;;
16426;SDS011;8322;-33.900;151.170;2023-03-01T10:01:50;12.80;;;2.55;;
16426;SDS011;8322;-33.900;151.170;2023-03-01T10:04:26;11.05;;;2.22;;
16426;SDS011;8322;-33.900;151.170;2023-03-01T10:07:00;10.93;;;2.30;;
16426;SDS011;8322;-33.900;151.170;2023-03-01T10:09:34;11.77;;;2.70;;
16426;SDS011;8322;-33.900;151.170;2023-03-01T10:12:07;13.95;;;2.70;;
16426;SDS011;8322;-33.900;151.170;2023-03-01T10:14:38;13.88;;;2.60;;
16426;SDS011;8322;-33.900;151.170;2023-03-01T10:17:12;11.98;;;2.55;;
16426;SDS011;8322;-33.900;151.170;2023-03-01T10:19:42;9.60;;;2.47;;
16426;SDS011;8322;-33.900;151.170;2023-03-01T10:22:13;10.50;;;2.50;;
16426;SDS011;8322;-33.900;151.170;2023-03-01T10:24:43;10.70;;;2.42;;
16426;SDS011;8322;-33.900;151.170;2023-03-01T10:27:14;11.60;;;2.58;;
16426;SDS011;8322;-33.900;151.170;2023-03-01T10:29:48;12.30;;;2.50;;
16426;SDS011;8322;-33.900;151.170;2023-03-01T10:32:20;11.88;;;2.90;;
16426;SDS011;8322;-33.900;151.170;2023-03-01T10:34:49;12.40;;;2.75;;
16426;SDS011;8322;-33.900;151.170;2023-03-01T10:37:19;10.32;;;2.53;;
16426;SDS011;8322;-33.900;151.170;2023-03-01T10:39:57;14.38;;;3.00;;
16426;SDS011;8322;-33.900;151.170;2023-03-01T10:42:28;15.88;;;3.30;;
16426;SDS011;8322;-33.900;151.170;2023-03-01T10:44:58;13.05;;;3.20;;
16426;SDS011;8322;-33.900;151.170;2023-03-01T10:47:29;16.60;;;4.22;;
16426;SDS011;8322;-33.900;151.170;2023-03-01T10:49:59;16.33;;;3.65;;
16426;SDS011;8322;-33.900;151.170;2023-03-01T10:52:31;12.98;;;2.97;;
16426;SDS011;8322;-33.900;151.170;2023-03-01T10:55:02;14.98;;;3.38;;
16426;SDS011;8322;-33.900;151.170;2023-03-01T10:57:35;12.82;;;3.00;;
16426;SDS011;8322;-33.900;151.170;2023-03-01T11:00:15;13.95;;;2.88;;
16426;SDS011;8322;-33.900;151.170;2023-03-01T11:02:49;12.93;;;3.10;;
16426;SDS011;8322;-33.900;151.170;2023-03-01T11:05:20;13.23;;;3.17;;
16426;SDS011;8322;-33.900;151.170;2023-03-01T11:07:51;7.63;;;2.22;;
16426;SDS011;8322;-33.900;151.170;2023-03-01T11:10:23;9.68;;;2.28;;
16426;SDS011;8322;-33.900;151.170;2023-03-01T11:12:53;10.27;;;2.22;;
16426;SDS011;8322;-33.900;151.170;2023-03-01T11:15:34;12.15;;;2.47;;
16426;SDS011;8322;-33.900;151.170;2023-03-01T11:18:05;8.88;;;2.45;;
16426;SDS011;8322;-33.900;151.170;2023-03-01T11:20:46;15.73;;;3.78;;
16426;SDS011;8322;-33.900;151.170;2023-03-01T11:23:17;10.10;;;2.40;;
16426;SDS011;8322;-33.900;151.170;2023-03-01T11:25:47;11.10;;;3.38;;
16426;SDS011;8322;-33.900;151.170;2023-03-01T11:28:17;13.27;;;2.72;;
16426;SDS011;8322;-33.900;151.170;2023-03-01T11:30:49;8.57;;;2.38;;
16426;SDS011;8322;-33.900;151.170;2023-03-01T11:33:24;12.63;;;2.80;;
16426;SDS011;8322;-33.900;151.170;2023-03-01T11:36:01;10.63;;;2.40;;
16426;SDS011;8322;-33.900;151.170;2023-03-01T11:38:32;11.88;;;2.60;;
16426;SDS011;8322;-33.900;151.170;2023-03-01T11:41:05;9.82;;;2.58;;
16426;SDS011;8322;-33.900;151.170;2023-03-01T11:43:36;12.35;;;2.50;;
16426;SDS011;8322;-33.900;151.170;2023-03-01T11:48:58;10.95;;;2.50;;
16426;SDS011;8322;-33.900;151.170;2023-03-01T11:51:37;9.55;;;2.47;;
16426;SDS011;8322;-33.900;151.170;2023-03-01T11:54:13;9.88;;;2.28;;
16426;SDS011;8322;-33.900;151.170;2023-03-01T11:56:43;11.13;;;2.30;;
16426;SDS011;8322;-33.900;151.170;2023-03-01T12:05:08;14.82;;;2.35;;
16426;SDS011;8322;-33.900;151.170;2023-03-01T12:07:46;10.52;;;2.15;;
16426;SDS011;8322;-33.900;151.170;2023-03-01T12:10:20;10.00;;;2.38;;
16426;SDS011;8322;-33.900;151.170;2023-03-01T12:12:57;11.68;;;2.70;;
16426;SDS011;8322;-33.900;151.170;2023-03-01T12:15:33;7.28;;;2.30;;
16426;SDS011;8322;-33.900;151.170;2023-03-01T12:18:15;6.63;;;2.20;;
16426;SDS011;8322;-33.900;151.170;2023-03-01T12:20:53;12.43;;;2.35;;
16426;SDS011;8322;-33.900;151.170;2023-03-01T12:23:33;10.52;;;2.10;;
16426;SDS011;8322;-33.900;151.170;2023-03-01T12:26:08;13.02;;;2.30;;
16426;SDS011;8322;-33.900;151.170;2023-03-01T12:28:48;12.95;;;2.33;;
16426;SDS011;8322;-33.900;151.170;2023-03-01T12:31:29;9.10;;;2.58;;
16426;SDS011;8322;-33.900;151.170;2023-03-01T12:34:03;7.90;;;2.40;;
16426;SDS011;8322;-33.900;151.170;2023-03-01T12:36:48;10.18;;;2.58;;
16426;SDS011;8322;-33.900;151.170;2023-03-01T12:39:30;10.57;;;2.38;;
16426;SDS011;8322;-33.900;151.170;2023-03-01T12:42:02;11.00;;;2.22;;
16426;SDS011;8322;-33.900;151.170;2023-03-01T12:44:37;10.88;;;2.20;;
16426;SDS011;8322;-33.900;151.170;2023-03-01T12:47:13;8.80;;;2.60;;
16426;SDS011;8322;-33.900;151.170;2023-03-01T12:49:47;11.95;;;3.15;;
16426;SDS011;8322;-33.900;151.170;2023-03-01T12:52:21;12.55;;;2.35;;
16426;SDS011;8322;-33.900;151.170;2023-03-01T12:54:52;8.05;;;2.10;;
16426;SDS011;8322;-33.900;151.170;2023-03-01T12:57:26;12.35;;;2.55;;
16426;SDS011;8322;-33.900;151.170;2023-03-01T13:00:09;11.02;;;2.42;;
16426;SDS011;8322;-33.900;151.170;2023-03-01T13:02:41;13.38;;;2.53;;
16426;SDS011;8322;-33.900;151.170;2023-03-01T13:05:19;10.15;;;2.10;;
16426;SDS011;8322;-33.900;151.170;2023-03-01T13:07:55;11.15;;;2.45;;
16426;SDS011;8322;-33.900;151.170;2023-03-01T13:10:29;9.15;;;2.63;;
16426;SDS011;8322;-33.900;151.170;2023-03-01T13:13:03;9.25;;;2.53;;
16426;SDS011;8322;-33.900;151.170;2023-03-01T13:15:41;9.18;;;2.60;;
16426;SDS011;8322;-33.900;151.170;2023-03-01T13:21:00;12.10;;;2.65;;
16426;SDS011;8322;-33.900;151.170;2023-03-01T13:23:39;12.70;;;2.75;;
16426;SDS011;8322;-33.900;151.170;2023-03-01T13:26:10;10.15;;;2.22;;
16426;SDS011;8322;-33.900;151.170;2023-03-01T13:28:50;10.05;;;2.20;;
16426;SDS011;8322;-33.900;151.170;2023-03-01T13:34:18;7.90;;;1.98;;
16426;SDS011;8322;-33.900;151.170;2023-03-01T13:37:16;8.05;;;2.20;;
16426;SDS011;8322;-33.900;151.170;2023-03-01T13:39:49;11.73;;;2.22;;
16426;SDS011;8322;-33.900;151.170;2023-03-01T13:42:31;9.13;;;2.20;;
16426;SDS011;8322;-33.900;151.170;2023-03-01T13:45:01;9.32;;;2.10;;
16426;SDS011;8322;-33.900;151.170;2023-03-01T13:47:30;6.50;;;2.15;;
16426;SDS011;8322;-33.900;151.170;2023-03-01T13:50:02;9.35;;;2.50;;
16426;SDS011;8322;-33.900;151.170;2023-03-01T13:52:38;11.15;;;2.20;;
16426;SDS011;8322;-33.900;151.170;2023-03-01T13:55:16;7.20;;;1.98;;
16426;SDS011;8322;-33.900;151.170;2023-03-01T13:57:48;11.07;;;2.60;;
16426;SDS011;8322;-33.900;151.170;2023-03-01T14:00:29;12.27;;;2.47;;
16426;SDS011;8322;-33.900;151.170;2023-03-01T14:03:08;10.13;;;2.05;;
16426;SDS011;8322;-33.900;151.170;2023-03-01T14:05:38;12.50;;;2.22;;
16426;SDS011;8322;-33.900;151.170;2023-03-01T14:08:18;8.43;;;2.28;;
16426;SDS011;8322;-33.900;151.170;2023-03-01T14:10:57;11.05;;;2.17;;
16426;SDS011;8322;-33.900;151.170;2023-03-01T14:13:35;9.93;;;2.30;;
16426;SDS011;8322;-33.900;151.170;2023-03-01T14:16:11;6.80;;;2.00;;
16426;SDS011;8322;-33.900;151.170;2023-03-01T14:18:43;9.82;;;2.30;;
16426;SDS011;8322;-33.900;151.170;2023-03-01T14:21:18;6.85;;;2.10;;
16426;SDS011;8322;-33.900;151.170;2023-03-01T14:23:48;7.28;;;2.00;;
16426;SDS011;8322;-33.900;151.170;2023-03-01T14:26:22;9.27;;;1.90;;
16426;SDS011;8322;-33.900;151.170;2023-03-01T14:28:52;9.48;;;1.80;;
16426;SDS011;8322;-33.900;151.170;2023-03-01T14:31:37;9.88;;;2.05;;
16426;SDS011;8322;-33.900;151.170;2023-03-01T14:34:16;8.10;;;1.90;;
16426;SDS011;8322;-33.900;151.170;2023-03-01T14:36:47;7.88;;;2.22;;
16426;SDS011;8322;-33.900;151.170;2023-03-01T14:39:17;12.55;;;2.45;;
16426;SDS011;8322;-33.900;151.170;2023-03-01T14:41:48;10.00;;;2.22;;
16426;SDS011;8322;-33.900;151.170;2023-03-01T14:44:19;8.68;;;2.55;;
16426;SDS011;8322;-33.900;151.170;2023-03-01T14:46:52;7.78;;;2.47;;
16426;SDS011;8322;-33.900;151.170;2023-03-01T14:49:22;10.60;;;2.80;;
16426;SDS011;8322;-33.900;151.170;2023-03-01T14:51:52;8.15;;;2.10;;
16426;SDS011;8322;-33.900;151.170;2023-03-01T14:54:24;7.00;;;2.40;;
16426;SDS011;8322;-33.900;151.170;2023-03-01T14:56:57;9.55;;;2.70;;